Terminal Aerodrome Forecast
Issued by NWS

Home | Current Version | Previous Version | Text Only | Print | Product List | Glossary On
Versions: 1 2 3 4 5 6 7 8 9 10 11 12 13 14 15 16 17 18 19 20 21 22 23 24 25 26 27 28 29 30
000
FTUS44 KCRP 040500
TAFALI
TAF
KALI 040520Z 0406/0506 14011KT 5SM BR OVC005
      TEMPO 0406/0408 1SM BR OVC003
     FM040800 15008KT 1/2SM FG VV002
     FM041600 16012KT 4SM BR OVC009
     FM041800 18014KT P6SM BKN014 OVC028
     FM042000 16015KT P6SM SCT028 SCT150
     FM050100 11010KT 4SM BR BKN006 OVC150
     FM050300 01020G30KT 5SM -SHRA OVC008=

USA.gov is the U.S. government's official web portal to all federal, state and local government web resources and services.